createdAt,value
2018-06-24T00:00:43.341Z,0.0
2018-06-24T00:01:42.956Z,0.0
2018-06-24T00:02:45.170Z,0.0
2018-06-24T00:03:43.441Z,0.0
2018-06-24T00:04:43.343Z,0.0
2018-06-24T00:05:43.085Z,0.0
2018-06-24T00:06:43.484Z,0.0
2018-06-24T00:07:43.395Z,0.0
2018-06-24T00:08:43.411Z,0.0
2018-06-24T00:09:43.399Z,0.0
2018-06-24T00:10:43.572Z,0.0
2018-06-24T00:11:42.872Z,0.0
2018-06-24T00:12:43.129Z,0.0
2018-06-24T00:13:43.560Z,0.0
2018-06-24T00:14:43.133Z,0.0
2018-06-24T00:15:43.213Z,0.0
2018-06-24T00:16:43.402Z,0.0
2018-06-24T00:17:43.051Z,0.0
2018-06-24T00:18:42.934Z,0.0
2018-06-24T00:19:43.140Z,0.0
2018-06-24T00:20:43.405Z,0.0
2018-06-24T00:21:43.436Z,0.0
2018-06-24T00:22:43.474Z,0.0
2018-06-24T00:23:42.956Z,0.0
2018-06-24T00:24:45.284Z,0.0
2018-06-24T00:25:43.157Z,0.0
2018-06-24T00:26:43.456Z,0.0
2018-06-24T00:27:42.978Z,0.0
2018-06-24T00:28:45.416Z,0.0
2018-06-24T00:29:42.927Z,0.0
2018-06-24T00:30:43.050Z,0.0
2018-06-24T00:31:43.536Z,0.0
2018-06-24T00:32:43.488Z,0.0
2018-06-24T00:33:43.155Z,0.0
2018-06-24T00:34:43.346Z,0.0
2018-06-24T00:35:43.243Z,0.0
2018-06-24T00:36:43.738Z,0.0
2018-06-24T00:37:43.442Z,0.0
2018-06-24T00:38:43.517Z,0.0
2018-06-24T00:39:43.352Z,0.0
2018-06-24T00:40:43.442Z,0.0
2018-06-24T00:41:43.177Z,0.0
2018-06-24T00:42:43.412Z,0.0
2018-06-24T00:43:43.196Z,0.0
2018-06-24T00:44:42.986Z,0.0
2018-06-24T00:45:43.451Z,0.0
2018-06-24T00:46:43.545Z,0.0
2018-06-24T00:47:43.232Z,0.0
2018-06-24T00:48:43.471Z,0.0
2018-06-24T00:49:43.015Z,0.0
2018-06-24T00:50:43.499Z,0.0
2018-06-24T00:51:43.097Z,0.0
2018-06-24T00:52:43.210Z,0.0
2018-06-24T00:53:43.397Z,0.0
2018-06-24T00:54:43.437Z,0.0
2018-06-24T00:55:43.495Z,0.0
2018-06-24T00:56:43.016Z,0.0
2018-06-24T00:57:43.459Z,0.0
2018-06-24T00:58:43.025Z,0.0
2018-06-24T00:59:43.504Z,0.0
2018-06-24T01:00:43.556Z,0.0
2018-06-24T01:01:43.207Z,0.0
2018-06-24T01:02:43.503Z,0.0
2018-06-24T01:03:43.042Z,0.0
2018-06-24T01:06:24.666Z,0.0
2018-06-24T01:06:33.372Z,0.0
2018-06-24T01:07:33.300Z,0.0
2018-06-24T01:08:33.439Z,0.0
2018-06-24T01:09:32.938Z,0.0
2018-06-24T01:10:33.263Z,0.0
2018-06-24T01:11:33.140Z,0.0
2018-06-24T01:12:33.411Z,0.0
2018-06-24T01:13:33.550Z,0.0
2018-06-24T01:14:33.417Z,0.0
2018-06-24T01:15:33.623Z,0.0
2018-06-24T01:16:33.058Z,0.0
2018-06-24T01:17:33.321Z,0.0
2018-06-24T01:18:33.073Z,0.0
2018-06-24T01:19:33.312Z,0.0
2018-06-24T01:20:33.924Z,0.0
2018-06-24T01:21:33.357Z,0.0
2018-06-24T01:22:32.897Z,0.0
2018-06-24T01:23:33.498Z,0.0
2018-06-24T01:24:32.937Z,0.0
2018-06-24T01:25:33.700Z,0.0
2018-06-24T01:26:33.081Z,0.0
2018-06-24T01:27:33.080Z,0.0
2018-06-24T01:28:32.898Z,0.0
2018-06-24T01:29:32.900Z,0.0
2018-06-24T01:30:34.059Z,0.0
2018-06-24T01:31:33.110Z,0.0
2018-06-24T01:32:32.910Z,0.0
2018-06-24T01:33:33.348Z,0.0
2018-06-24T01:34:32.992Z,0.0
2018-06-24T01:35:35.313Z,0.0
2018-06-24T01:36:33.409Z,0.0
2018-06-24T01:37:33.236Z,0.0
2018-06-24T01:38:33.523Z,0.0
2018-06-24T01:39:34.036Z,0.0
2018-06-24T01:40:33.051Z,0.0
2018-06-24T01:41:33.176Z,0.0
2018-06-24T01:42:33.664Z,0.0
2018-06-24T01:43:33.165Z,0.0
2018-06-24T01:44:33.073Z,0.0
2018-06-24T01:45:33.421Z,0.0
2018-06-24T01:46:33.113Z,0.0
2018-06-24T01:47:33.022Z,0.0
2018-06-24T01:48:33.356Z,0.0
2018-06-24T01:49:32.929Z,0.0
2018-06-24T01:50:33.724Z,0.0
2018-06-24T01:51:33.464Z,0.0
2018-06-24T01:53:33.604Z,0.0
2018-06-24T01:54:33.419Z,0.0
2018-06-24T01:55:32.974Z,0.0
2018-06-24T01:56:33.136Z,0.0
2018-06-24T01:57:33.653Z,0.0
2018-06-24T01:58:33.421Z,0.0
2018-06-24T01:59:33.125Z,0.0
2018-06-24T02:00:33.804Z,0.0
2018-06-24T02:01:33.123Z,0.0
2018-06-24T02:02:33.596Z,0.0
2018-06-24T02:03:33.134Z,0.0
2018-06-24T02:04:33.582Z,0.0
2018-06-24T02:05:33.319Z,0.0
2018-06-24T02:06:34.905Z,0.0
2018-06-24T02:07:33.766Z,0.0
2018-06-24T02:08:32.950Z,0.0
2018-06-24T02:09:33.184Z,0.0
2018-06-24T02:11:01.524Z,0.0
2018-06-24T02:11:33.133Z,0.0
2018-06-24T02:12:33.451Z,0.0
2018-06-24T02:13:33.432Z,0.0
2018-06-24T02:14:33.155Z,0.0
2018-06-24T02:15:32.960Z,0.0
2018-06-24T02:16:33.113Z,0.0
2018-06-24T02:17:33.471Z,0.0
2018-06-24T02:18:33.462Z,0.0
2018-06-24T02:19:33.534Z,0.0
2018-06-24T02:20:33.434Z,0.0
2018-06-24T02:22:45.549Z,0.0
2018-06-24T02:23:45.929Z,0.0
2018-06-24T02:24:45.391Z,0.0
2018-06-24T02:25:46.014Z,0.0
2018-06-24T02:26:45.558Z,0.0
2018-06-24T02:27:45.946Z,0.0
2018-06-24T02:28:46.557Z,0.0
2018-06-24T02:29:45.969Z,0.0
2018-06-24T02:30:45.777Z,0.0
2018-06-24T02:31:45.872Z,0.0
2018-06-24T02:32:45.683Z,0.0
2018-06-24T02:33:45.413Z,0.0
2018-06-24T02:34:46.046Z,0.0
2018-06-24T02:35:46.075Z,0.0
2018-06-24T02:36:45.445Z,0.0
2018-06-24T02:37:45.897Z,0.0
2018-06-24T02:38:45.615Z,0.0
2018-06-24T02:39:45.912Z,0.0
2018-06-24T02:40:45.986Z,0.0
2018-06-24T02:41:55.874Z,0.0
2018-06-24T02:42:45.884Z,0.0
2018-06-24T02:43:45.892Z,0.0
2018-06-24T02:44:45.906Z,0.0
2018-06-24T02:45:45.595Z,0.0
2018-06-24T02:46:45.746Z,0.0
2018-06-24T02:47:45.936Z,0.0
2018-06-24T02:48:45.685Z,0.0
2018-06-24T02:49:45.742Z,0.0
2018-06-24T02:50:45.572Z,0.0
2018-06-24T02:53:51.788Z,0.0
2018-06-24T02:54:52.027Z,0.0
2018-06-24T02:55:52.031Z,0.0
2018-06-24T02:56:52.549Z,0.0
2018-06-24T02:57:51.904Z,0.0
2018-06-24T02:58:52.423Z,0.0
2018-06-24T02:59:51.801Z,0.0
2018-06-24T03:00:51.664Z,0.0
2018-06-24T03:01:52.090Z,0.0
2018-06-24T03:02:51.880Z,0.0
2018-06-24T03:05:04.744Z,0.0
2018-06-24T03:06:04.350Z,0.0
2018-06-24T03:07:04.999Z,0.0
2018-06-24T03:08:04.898Z,0.0
2018-06-24T03:09:04.212Z,0.0
2018-06-24T03:10:05.428Z,0.0
2018-06-24T03:11:04.695Z,0.0
2018-06-24T03:12:04.653Z,0.0
2018-06-24T03:13:04.807Z,0.0
2018-06-24T03:14:04.395Z,0.0
2018-06-24T03:15:05.347Z,0.0
2018-06-24T03:16:04.413Z,0.0
2018-06-24T03:17:04.671Z,0.0
2018-06-24T03:18:04.634Z,0.0
2018-06-24T03:19:04.219Z,0.0
2018-06-24T03:20:04.650Z,0.0
2018-06-24T03:21:04.655Z,0.0
2018-06-24T03:22:04.334Z,0.0
2018-06-24T03:23:04.615Z,0.0
2018-06-24T03:24:04.726Z,0.0
2018-06-24T03:25:04.469Z,0.0
2018-06-24T03:26:04.626Z,0.0
2018-06-24T03:27:04.602Z,0.0
2018-06-24T03:28:04.598Z,0.0
2018-06-24T03:29:04.397Z,0.0
2018-06-24T03:30:04.656Z,0.0
2018-06-24T03:31:04.421Z,0.0
2018-06-24T03:32:04.867Z,0.0
2018-06-24T03:33:04.219Z,0.0
2018-06-24T03:34:04.358Z,0.0
2018-06-24T03:35:04.368Z,0.0
2018-06-24T03:36:04.734Z,0.0
2018-06-24T03:37:04.668Z,0.0
2018-06-24T03:38:04.632Z,0.0
2018-06-24T03:39:04.715Z,0.0
2018-06-24T03:40:04.208Z,0.0
2018-06-24T03:41:04.560Z,0.0
2018-06-24T03:42:04.421Z,0.0
2018-06-24T03:43:04.782Z,0.0
2018-06-24T03:44:04.905Z,0.0
2018-06-24T03:45:04.707Z,0.0
2018-06-24T03:46:04.684Z,0.0
2018-06-24T03:47:04.405Z,0.0
2018-06-24T03:48:04.368Z,0.0
2018-06-24T03:49:04.737Z,0.0
2018-06-24T03:50:04.779Z,0.0
2018-06-24T03:51:04.679Z,0.0
2018-06-24T03:52:04.757Z,0.0
2018-06-24T03:53:04.731Z,0.0
2018-06-24T03:54:04.689Z,0.0
2018-06-24T03:55:04.445Z,0.0
2018-06-24T03:56:04.637Z,0.0
2018-06-24T03:57:04.723Z,0.0
2018-06-24T03:58:04.769Z,0.0
2018-06-24T03:59:04.847Z,0.0
2018-06-24T04:00:04.754Z,0.0
2018-06-24T04:01:57.270Z,0.0
2018-06-24T04:02:04.391Z,0.0
2018-06-24T04:03:04.581Z,0.0
2018-06-24T04:04:04.574Z,0.0
2018-06-24T04:05:04.636Z,0.0
2018-06-24T04:06:04.604Z,0.0
2018-06-24T04:07:04.951Z,0.0
2018-06-24T04:08:04.521Z,0.0
2018-06-24T04:09:04.855Z,0.0
2018-06-24T04:10:04.966Z,0.0
2018-06-24T04:11:04.412Z,0.0
2018-06-24T04:13:17.527Z,0.0
2018-06-24T04:14:17.528Z,0.0
2018-06-24T04:15:17.405Z,0.0
2018-06-24T04:16:17.069Z,0.0
2018-06-24T04:17:17.491Z,0.0
2018-06-24T04:18:17.556Z,0.0
2018-06-24T04:19:17.435Z,0.0
2018-06-24T04:20:16.968Z,0.0
2018-06-24T04:21:17.160Z,0.0
2018-06-24T04:22:17.507Z,0.0
2018-06-24T04:28:12.121Z,0.0
2018-06-24T04:28:20.393Z,0.0
2018-06-24T04:29:20.271Z,0.0
2018-06-24T04:30:20.853Z,0.0
2018-06-24T04:31:20.879Z,0.0
2018-06-24T04:32:20.891Z,0.0
2018-06-24T04:33:20.513Z,0.0
2018-06-24T04:34:20.371Z,0.0
2018-06-24T04:35:20.374Z,0.0
2018-06-24T04:36:20.902Z,0.0
2018-06-24T04:37:25.278Z,0.0
2018-06-24T04:38:20.944Z,0.0
2018-06-24T04:39:20.837Z,0.0
2018-06-24T04:40:21.634Z,0.0
2018-06-24T04:41:20.807Z,0.0
2018-06-24T04:42:20.621Z,0.0
2018-06-24T04:43:21.296Z,0.0
2018-06-24T04:44:20.841Z,0.0
2018-06-24T04:45:20.850Z,0.0
2018-06-24T04:46:21.771Z,0.0
2018-06-24T04:52:16.009Z,0.0
2018-06-24T04:52:23.440Z,0.0
2018-06-24T04:53:23.201Z,0.0
2018-06-24T04:54:23.685Z,0.0
2018-06-24T04:55:23.642Z,0.0
2018-06-24T04:56:23.738Z,0.0
2018-06-24T04:57:24.312Z,0.0
2018-06-24T04:58:23.754Z,0.0
2018-06-24T04:59:23.765Z,0.0
2018-06-24T05:00:23.443Z,0.0
2018-06-24T05:01:24.109Z,0.0
2018-06-24T05:02:23.361Z,0.0
2018-06-24T05:03:23.658Z,0.0
2018-06-24T05:04:23.614Z,0.0
2018-06-24T05:05:23.447Z,0.0
2018-06-24T05:06:23.863Z,0.0
2018-06-24T05:07:24.428Z,0.0
2018-06-24T05:08:24.235Z,0.0
2018-06-24T05:09:23.718Z,0.0
2018-06-24T05:10:23.533Z,0.0
2018-06-24T05:11:24.191Z,0.0
2018-06-24T05:12:23.546Z,0.0
2018-06-24T05:13:23.739Z,0.0
2018-06-24T05:14:23.969Z,0.0
2018-06-24T05:15:23.258Z,0.0
2018-06-24T05:16:23.445Z,0.0
2018-06-24T05:17:23.505Z,0.0
2018-06-24T05:18:23.727Z,0.0
2018-06-24T05:19:24.090Z,0.0
2018-06-24T05:30:09.054Z,0.0
2018-06-24T05:30:18.199Z,0.0
2018-06-24T05:31:17.316Z,0.0
2018-06-24T05:32:17.796Z,0.0
2018-06-24T05:33:17.329Z,0.0
2018-06-24T05:34:17.814Z,0.0
2018-06-24T05:35:17.369Z,0.0
2018-06-24T05:36:17.526Z,0.0
2018-06-24T05:37:19.307Z,0.0
2018-06-24T05:38:17.768Z,0.0
2018-06-24T05:39:17.941Z,0.0
2018-06-24T05:40:17.304Z,0.0
2018-06-24T05:41:17.803Z,0.0
2018-06-24T05:42:17.715Z,0.0
2018-06-24T05:43:17.547Z,0.0
2018-06-24T05:44:17.351Z,0.0
2018-06-24T05:45:17.692Z,0.0
2018-06-24T05:46:18.442Z,0.0
2018-06-24T05:47:17.771Z,0.0
2018-06-24T05:48:17.772Z,0.0
2018-06-24T05:49:17.759Z,0.0
2018-06-24T05:50:17.532Z,0.0
2018-06-24T05:51:17.537Z,0.0
2018-06-24T05:52:18.504Z,0.0
2018-06-24T05:53:19.173Z,0.0
2018-06-24T05:54:17.464Z,0.0
2018-06-24T05:55:20.988Z,0.0
2018-06-24T05:56:17.428Z,0.0
2018-06-24T05:57:46.238Z,0.0
2018-06-24T05:58:17.427Z,0.0
2018-06-24T05:59:19.271Z,0.0
2018-06-24T06:00:17.937Z,0.0
2018-06-24T06:01:17.928Z,0.0
2018-06-24T06:02:17.879Z,0.0
2018-06-24T06:03:18.077Z,0.0
2018-06-24T06:04:17.761Z,0.0
2018-06-24T06:05:17.701Z,0.0
2018-06-24T06:06:18.135Z,0.0
2018-06-24T06:07:18.057Z,0.0
2018-06-24T06:09:30.372Z,0.0
2018-06-24T06:10:30.872Z,0.0
2018-06-24T06:11:31.393Z,0.0
2018-06-24T06:12:30.322Z,0.0
2018-06-24T06:13:30.260Z,0.0
2018-06-24T06:14:31.419Z,0.0
2018-06-24T06:15:30.697Z,0.0
2018-06-24T06:16:31.385Z,0.0
2018-06-24T06:17:31.190Z,0.0
2018-06-24T06:18:30.974Z,0.0
2018-06-24T06:19:31.409Z,0.0
2018-06-24T06:20:33.017Z,0.0
2018-06-24T06:21:31.535Z,0.0
2018-06-24T06:22:30.999Z,0.0
2018-06-24T06:23:31.217Z,0.0
2018-06-24T06:24:30.784Z,0.0
2018-06-24T06:25:30.573Z,0.0
2018-06-24T06:26:30.344Z,0.0
2018-06-24T06:27:30.340Z,0.0
2018-06-24T06:28:30.913Z,0.5
2018-06-24T06:29:59.150Z,0.5
2018-06-24T06:30:30.803Z,0.8
2018-06-24T06:31:30.573Z,0.8
2018-06-24T06:32:30.503Z,0.8
2018-06-24T06:33:30.273Z,0.0
2018-06-24T06:34:30.635Z,0.0
2018-06-24T06:35:30.600Z,0.0
2018-06-24T06:36:30.342Z,0.0
2018-06-24T06:37:30.793Z,0.0
2018-06-24T06:38:30.236Z,0.0
2018-06-24T06:39:30.620Z,0.0
2018-06-24T06:40:30.638Z,0.0
2018-06-24T06:41:30.853Z,0.0
2018-06-24T06:42:30.290Z,0.0
2018-06-24T06:43:30.589Z,0.0
2018-06-24T06:44:30.958Z,0.0
2018-06-24T06:45:30.231Z,0.0
2018-06-24T06:46:30.235Z,1.1
2018-06-24T06:47:30.132Z,1.1
2018-06-24T06:48:30.778Z,0.0
2018-06-24T06:49:30.641Z,0.0
2018-06-24T06:50:30.263Z,0.0
2018-06-24T06:51:30.596Z,1.3
2018-06-24T06:52:30.399Z,1.3
2018-06-24T06:53:30.199Z,0.0
2018-06-24T06:54:31.401Z,0.0
2018-06-24T06:55:30.307Z,0.0
2018-06-24T06:56:30.563Z,0.2
2018-06-24T06:57:30.801Z,0.2
2018-06-24T06:58:30.660Z,0.0
2018-06-24T06:59:30.709Z,0.0
2018-06-24T07:00:30.592Z,0.0
2018-06-24T07:01:32.001Z,0.0
2018-06-24T07:02:30.247Z,0.0
2018-06-24T07:03:30.467Z,0.0
2018-06-24T07:04:30.608Z,0.0
2018-06-24T07:05:30.266Z,0.0
2018-06-24T07:06:30.702Z,0.0
2018-06-24T07:07:30.558Z,0.0
2018-06-24T07:08:30.381Z,0.0
2018-06-24T07:09:30.477Z,0.0
2018-06-24T07:10:30.709Z,0.0
2018-06-24T07:11:30.782Z,0.0
2018-06-24T07:12:30.750Z,0.0
2018-06-24T07:13:30.337Z,0.0
2018-06-24T07:14:30.711Z,0.0
2018-06-24T07:15:32.357Z,0.0
2018-06-24T07:16:30.418Z,0.2
2018-06-24T07:17:31.278Z,0.2
2018-06-24T07:18:30.439Z,0.2
2018-06-24T07:19:30.525Z,0.0
2018-06-24T07:20:30.528Z,0.0
2018-06-24T07:21:30.499Z,0.0
2018-06-24T07:22:30.996Z,0.0
2018-06-24T07:23:31.175Z,0.0
2018-06-24T07:24:30.881Z,0.0
2018-06-24T07:25:30.829Z,0.0
2018-06-24T07:26:30.962Z,0.0
2018-06-24T07:27:30.294Z,0.0
2018-06-24T07:28:30.840Z,0.0
2018-06-24T07:29:30.351Z,12.2
2018-06-24T07:30:30.758Z,12.2
2018-06-24T07:31:30.725Z,1.3
2018-06-24T07:32:31.225Z,1.3
2018-06-24T07:33:30.987Z,1.3
2018-06-24T07:34:31.508Z,0.2
2018-06-24T07:35:30.892Z,0.2
2018-06-24T07:36:30.529Z,0.2
2018-06-24T07:37:30.953Z,0.0
2018-06-24T07:38:30.995Z,0.0
2018-06-24T07:39:30.872Z,0.0
2018-06-24T07:40:31.057Z,0.0
2018-06-24T07:41:31.610Z,0.0
2018-06-24T07:42:30.502Z,1.3
2018-06-24T07:43:30.425Z,1.3
2018-06-24T07:44:33.151Z,1.3
2018-06-24T07:45:30.511Z,1.3
2018-06-24T07:46:31.442Z,1.3
2018-06-24T07:47:30.261Z,1.3
2018-06-24T07:48:30.537Z,1.3
2018-06-24T07:49:30.500Z,0.0
2018-06-24T07:50:30.284Z,0.0
2018-06-24T07:51:30.542Z,0.0
2018-06-24T07:52:31.941Z,0.0
2018-06-24T07:53:30.891Z,0.0
2018-06-24T07:54:30.949Z,1.1
2018-06-24T07:55:30.597Z,1.1
2018-06-24T07:56:30.876Z,1.1
2018-06-24T07:57:30.719Z,0.2
2018-06-24T07:58:30.442Z,0.2
2018-06-24T07:59:30.610Z,0.2
2018-06-24T08:00:30.787Z,0.2
2018-06-24T08:01:31.149Z,0.2
2018-06-24T08:02:30.451Z,0.0
2018-06-24T08:03:31.355Z,0.0
2018-06-24T08:04:31.500Z,0.0
2018-06-24T08:05:30.865Z,0.0
2018-06-24T08:06:31.346Z,0.0
2018-06-24T08:07:32.219Z,0.0
2018-06-24T08:08:30.970Z,0.0
2018-06-24T08:09:30.465Z,0.0
2018-06-24T08:10:30.519Z,1.1
2018-06-24T08:11:30.365Z,1.1
2018-06-24T08:12:31.630Z,4.4
2018-06-24T08:13:31.583Z,4.4
2018-06-24T08:14:30.900Z,4.4
2018-06-24T08:15:30.952Z,4.4
2018-06-24T08:16:31.546Z,4.4
2018-06-24T08:17:30.612Z,5.0
2018-06-24T08:18:30.931Z,5.0
2018-06-24T08:19:30.948Z,5.0
2018-06-24T08:20:31.475Z,5.2
2018-06-24T08:21:31.203Z,5.2
2018-06-24T08:22:31.482Z,3.0
2018-06-24T08:23:30.914Z,3.0
2018-06-24T08:24:30.581Z,3.0
2018-06-24T08:25:30.583Z,3.0
2018-06-24T08:26:30.824Z,3.0
2018-06-24T08:27:30.287Z,7.5
2018-06-24T08:28:30.405Z,7.5
2018-06-24T08:29:30.796Z,7.5
2018-06-24T08:30:30.849Z,14.4
2018-06-24T08:31:30.858Z,14.4
2018-06-24T08:32:30.383Z,1.1
2018-06-24T08:33:31.754Z,1.1
2018-06-24T08:34:30.452Z,1.1
2018-06-24T08:35:30.575Z,0.8
2018-06-24T08:36:30.392Z,0.8
2018-06-24T08:37:31.055Z,0.8
2018-06-24T08:38:30.655Z,4.4
2018-06-24T08:39:30.829Z,4.4
2018-06-24T08:40:31.953Z,5.5
2018-06-24T08:41:31.712Z,5.5
2018-06-24T08:42:31.952Z,5.5
2018-06-24T08:43:31.027Z,5.5
2018-06-24T08:44:30.593Z,5.5
2018-06-24T08:45:30.890Z,3.6
2018-06-24T08:46:30.437Z,3.6
2018-06-24T08:47:40.895Z,3.6
2018-06-24T08:48:30.908Z,1.9
2018-06-24T08:49:30.878Z,1.9
2018-06-24T08:50:30.890Z,2.5
2018-06-24T08:51:31.439Z,2.5
2018-06-24T08:52:32.016Z,2.5
2018-06-24T08:53:31.045Z,0.2
2018-06-24T08:54:30.965Z,0.2
2018-06-24T08:55:30.889Z,0.2
2018-06-24T08:56:30.839Z,0.2
2018-06-24T08:59:39.967Z,0.2
2018-06-24T09:00:41.709Z,0.0
2018-06-24T09:01:43.186Z,0.0
2018-06-24T09:02:40.657Z,0.0
2018-06-24T09:03:41.984Z,0.0
2018-06-24T09:04:41.218Z,0.0
2018-06-24T09:05:42.242Z,0.0
2018-06-24T09:06:40.464Z,0.0
2018-06-24T09:07:40.621Z,0.0
2018-06-24T09:08:41.028Z,3.0
2018-06-24T09:10:53.737Z,0.5
2018-06-24T09:11:56.394Z,0.5
2018-06-24T09:12:54.619Z,0.5
2018-06-24T09:13:53.656Z,1.1
2018-06-24T09:14:54.593Z,1.1
2018-06-24T09:15:53.707Z,5.2
2018-06-24T09:16:53.263Z,5.2
2018-06-24T09:17:53.937Z,5.2
2018-06-24T09:18:54.597Z,3.3
2018-06-24T09:19:53.974Z,3.3
2018-06-24T09:20:54.413Z,4.7
2018-06-24T09:21:59.625Z,4.7
2018-06-24T09:22:54.416Z,4.7
2018-06-24T09:23:55.657Z,4.4
2018-06-24T09:24:54.705Z,4.4
2018-06-24T09:25:53.964Z,2.2
2018-06-24T09:26:54.325Z,2.2
2018-06-24T09:27:54.473Z,2.2
2018-06-24T09:28:54.747Z,4.7
2018-06-24T09:30:13.925Z,4.7
2018-06-24T09:30:56.506Z,4.7
2018-06-24T09:31:53.645Z,5.2
2018-06-24T09:32:53.912Z,5.2
2018-06-24T09:33:54.525Z,2.2
2018-06-24T09:34:53.969Z,2.2
2018-06-24T09:35:54.848Z,2.2
2018-06-24T09:36:53.983Z,2.5
2018-06-24T09:37:53.936Z,2.5
2018-06-24T09:38:53.518Z,3.8
2018-06-24T09:40:47.486Z,3.8
2018-06-24T09:40:57.298Z,3.8
2018-06-24T09:41:57.332Z,4.1
2018-06-24T09:42:56.571Z,4.1
2018-06-24T09:43:56.624Z,5.8
2018-06-24T09:44:56.614Z,5.8
2018-06-24T09:45:56.515Z,5.8
2018-06-24T09:46:56.430Z,5.8
2018-06-24T09:47:57.234Z,5.8
2018-06-24T09:48:55.959Z,6.6
2018-06-24T09:49:56.461Z,6.6
2018-06-24T09:52:09.065Z,6.6
2018-06-24T09:53:12.418Z,6.6
2018-06-24T09:54:09.694Z,5.0
2018-06-24T09:55:09.273Z,5.0
2018-06-24T09:56:09.306Z,5.0
2018-06-24T09:57:09.424Z,2.2
2018-06-24T09:58:09.319Z,2.2
2018-06-24T09:59:09.534Z,7.2
2018-06-24T10:00:11.809Z,7.2
2018-06-24T10:01:12.590Z,7.2
2018-06-24T10:02:09.177Z,3.6
2018-06-24T10:03:08.912Z,3.6
2018-06-24T10:04:10.312Z,5.2
2018-06-24T10:05:09.344Z,5.2
2018-06-24T10:06:10.323Z,5.2
2018-06-24T10:07:10.260Z,2.7
2018-06-24T10:09:09.200Z,29.7
2018-06-24T10:10:10.687Z,29.7
2018-06-24T10:11:09.939Z,29.7
2018-06-24T10:12:09.101Z,5.8
2018-06-24T10:13:09.633Z,5.8
2018-06-24T10:14:10.427Z,5.8
2018-06-24T10:15:09.174Z,25.2
2018-06-24T10:16:09.970Z,25.2
2018-06-24T10:17:09.797Z,5.0
2018-06-24T10:18:09.413Z,5.0
2018-06-24T10:19:09.720Z,5.0
2018-06-24T10:20:09.540Z,22.2
2018-06-24T10:21:09.588Z,22.2
2018-06-24T10:22:09.487Z,5.2
2018-06-24T10:23:09.341Z,5.2
2018-06-24T10:24:09.511Z,5.2
2018-06-24T10:25:15.823Z,2.7
2018-06-24T10:26:11.731Z,2.7
2018-06-24T10:27:09.413Z,2.7
2018-06-24T10:28:09.890Z,2.7
2018-06-24T10:29:10.204Z,2.7
2018-06-24T10:30:09.632Z,0.8
2018-06-24T10:31:09.817Z,0.8
2018-06-24T10:32:09.339Z,3.8
2018-06-24T10:33:09.438Z,3.8
2018-06-24T10:34:09.651Z,3.8
2018-06-24T10:35:09.585Z,1.3
2018-06-24T10:36:09.180Z,1.3
2018-06-24T10:38:17.401Z,0.2
2018-06-24T10:39:09.793Z,0.2
2018-06-24T10:40:09.807Z,2.2
2018-06-24T10:41:09.582Z,2.2
2018-06-24T10:42:09.534Z,6.1
2018-06-24T10:43:09.793Z,6.1
2018-06-24T10:44:09.349Z,6.1
2018-06-24T10:45:09.026Z,12.5
2018-06-24T10:46:09.237Z,12.5
2018-06-24T10:47:09.836Z,12.5
2018-06-24T10:48:10.324Z,6.6
2018-06-24T10:49:09.824Z,6.6
2018-06-24T10:50:09.164Z,4.1
2018-06-24T10:51:09.884Z,4.1
2018-06-24T10:52:09.308Z,4.1
2018-06-24T10:53:10.269Z,3.3
2018-06-24T10:54:09.958Z,3.3
2018-06-24T10:55:09.204Z,5.5
2018-06-24T10:56:09.831Z,5.5
2018-06-24T10:57:09.919Z,5.5
2018-06-24T10:58:09.544Z,5.0
2018-06-24T10:59:09.058Z,5.0
2018-06-24T11:00:09.583Z,2.2
2018-06-24T11:01:10.172Z,2.2
2018-06-24T11:02:09.270Z,2.2
2018-06-24T11:03:10.024Z,1.1
2018-06-24T11:04:09.700Z,1.1
2018-06-24T11:05:09.514Z,0.2
2018-06-24T11:06:10.719Z,0.2
2018-06-24T11:07:10.339Z,0.2
2018-06-24T11:08:10.402Z,0.2
2018-06-24T11:10:09.693Z,0.2
2018-06-24T11:11:09.882Z,0.2
2018-06-24T11:12:10.172Z,0.2
2018-06-24T11:13:11.465Z,1.9
2018-06-24T11:14:10.358Z,1.9
2018-06-24T11:15:10.883Z,1.9
2018-06-24T11:16:10.482Z,4.1
2018-06-24T11:17:10.075Z,4.1
2018-06-24T11:18:11.024Z,19.4
2018-06-24T11:19:10.016Z,19.4
2018-06-24T11:20:09.621Z,19.4
2018-06-24T11:21:09.939Z,1.3
2018-06-24T11:22:09.431Z,1.3
2018-06-24T11:23:09.643Z,0.2
2018-06-24T11:24:09.259Z,0.2
2018-06-24T11:25:09.661Z,0.2
2018-06-24T11:26:09.256Z,2.5
2018-06-24T11:27:09.277Z,2.5
2018-06-24T11:28:09.775Z,5.5
2018-06-24T11:29:10.198Z,5.5
2018-06-24T11:30:09.057Z,5.5
2018-06-24T11:31:09.710Z,6.6
2018-06-24T11:32:09.107Z,6.6
2018-06-24T11:33:10.187Z,8.0
2018-06-24T11:34:10.523Z,8.0
2018-06-24T11:35:10.169Z,8.0
2018-06-24T11:36:09.792Z,3.6
2018-06-24T11:37:09.363Z,3.6
2018-06-24T11:38:09.636Z,7.5
2018-06-24T11:39:09.504Z,7.5
2018-06-24T11:40:09.500Z,7.5
2018-06-24T11:42:09.460Z,8.6
2018-06-24T11:43:09.439Z,6.6
2018-06-24T11:44:10.286Z,6.6
2018-06-24T11:45:09.471Z,6.6
2018-06-24T11:46:09.370Z,3.8
2018-06-24T11:47:09.516Z,3.8
2018-06-24T11:48:09.068Z,3.8
2018-06-24T11:49:09.579Z,3.8
2018-06-24T11:50:09.422Z,3.8
2018-06-24T11:51:09.202Z,7.5
2018-06-24T11:52:09.698Z,7.5
2018-06-24T11:53:09.591Z,7.5
2018-06-24T11:54:37.503Z,40.2
2018-06-24T11:55:09.884Z,40.2
2018-06-24T11:56:09.643Z,6.9
2018-06-24T11:57:09.609Z,6.9
2018-06-24T11:58:09.603Z,6.9
2018-06-24T11:59:09.728Z,6.9
2018-06-24T12:00:10.293Z,6.9
2018-06-24T12:01:09.038Z,26.9
2018-06-24T12:02:09.853Z,26.9
2018-06-24T12:03:10.239Z,26.9
2018-06-24T12:04:10.234Z,8.0
2018-06-24T12:06:22.103Z,4.1
2018-06-24T12:07:22.477Z,4.1
2018-06-24T12:08:22.569Z,4.1
2018-06-24T12:09:22.645Z,5.8
2018-06-24T12:10:22.427Z,5.8
2018-06-24T12:11:22.351Z,31.6
2018-06-24T12:12:22.563Z,31.6
2018-06-24T12:13:22.497Z,31.6
2018-06-24T12:14:22.679Z,7.2
2018-06-24T12:15:22.142Z,7.2
2018-06-24T12:16:38.661Z,5.8
2018-06-24T12:17:27.667Z,5.8
2018-06-24T12:18:22.520Z,5.8
2018-06-24T12:19:22.506Z,3.0
2018-06-24T12:20:23.217Z,3.0
2018-06-24T12:21:22.568Z,3.0
2018-06-24T12:22:23.727Z,3.0
2018-06-24T12:23:22.492Z,3.0
2018-06-24T12:24:22.661Z,7.5
2018-06-24T12:25:22.081Z,7.5
2018-06-24T12:26:32.531Z,5.0
2018-06-24T12:27:22.600Z,5.0
2018-06-24T12:28:22.277Z,5.0
2018-06-24T12:29:22.192Z,5.0
2018-06-24T12:30:22.691Z,5.0
2018-06-24T12:31:22.254Z,5.0
2018-06-24T12:32:22.746Z,3.0
2018-06-24T12:33:22.675Z,3.0
2018-06-24T12:34:22.666Z,6.1
2018-06-24T12:35:22.685Z,6.1
2018-06-24T12:36:22.312Z,6.1
2018-06-24T12:37:22.883Z,8.8
2018-06-24T12:38:22.190Z,8.8
2018-06-24T12:39:22.559Z,8.0
2018-06-24T12:40:22.636Z,8.0
2018-06-24T12:41:22.125Z,8.0
2018-06-24T12:42:23.312Z,3.8
2018-06-24T12:43:22.422Z,3.8
2018-06-24T12:44:22.285Z,5.2
2018-06-24T12:45:22.617Z,5.2
2018-06-24T12:46:23.048Z,5.2
2018-06-24T12:47:22.131Z,4.7
2018-06-24T12:48:22.233Z,4.7
2018-06-24T12:49:22.901Z,1.1
2018-06-24T12:50:22.256Z,1.1
2018-06-24T12:51:22.586Z,1.1
2018-06-24T12:52:22.435Z,2.5
2018-06-24T12:53:22.507Z,2.5
2018-06-24T12:54:23.057Z,9.7
2018-06-24T12:55:22.569Z,9.7
2018-06-24T12:56:23.328Z,9.7
2018-06-24T12:57:22.135Z,2.5
2018-06-24T12:58:22.368Z,2.5
2018-06-24T12:59:23.489Z,2.5
2018-06-24T13:00:26.483Z,21.6
2018-06-24T13:01:22.439Z,21.6
2018-06-24T13:02:22.416Z,4.1
2018-06-24T13:03:22.823Z,4.1
2018-06-24T13:04:23.750Z,4.1
2018-06-24T13:05:24.107Z,12.5
2018-06-24T13:06:23.410Z,12.5
2018-06-24T13:07:22.775Z,9.1
2018-06-24T13:08:22.706Z,9.1
2018-06-24T13:09:22.375Z,9.1
2018-06-24T13:10:22.407Z,9.1
2018-06-24T13:11:22.280Z,9.1
2018-06-24T13:12:24.315Z,8.8
2018-06-24T13:13:23.088Z,8.8
2018-06-24T13:14:22.560Z,8.8
2018-06-24T13:15:22.355Z,7.2
2018-06-24T13:16:24.649Z,7.2
2018-06-24T13:17:22.961Z,3.3
2018-06-24T13:18:22.921Z,3.3
2018-06-24T13:19:22.728Z,3.3
2018-06-24T13:20:22.299Z,3.3
2018-06-24T13:21:22.328Z,3.3
2018-06-24T13:22:22.229Z,1.6
2018-06-24T13:23:22.792Z,1.6
2018-06-24T13:25:22.393Z,2.2
2018-06-24T13:26:23.548Z,2.2
2018-06-24T13:27:23.096Z,12.2
2018-06-24T13:28:22.833Z,12.2
2018-06-24T13:29:23.145Z,12.2
2018-06-24T13:30:22.427Z,7.2
2018-06-24T13:31:23.146Z,7.2
2018-06-24T13:32:23.722Z,7.2
2018-06-24T13:33:22.561Z,6.9
2018-06-24T13:34:23.830Z,6.9
2018-06-24T13:35:24.169Z,2.2
2018-06-24T13:36:22.406Z,2.2
2018-06-24T13:37:22.874Z,2.2
2018-06-24T13:38:23.807Z,3.3
2018-06-24T13:39:23.718Z,3.3
2018-06-24T13:40:26.063Z,5.5
2018-06-24T13:41:23.257Z,5.5
2018-06-24T13:42:22.778Z,5.5
2018-06-24T13:43:22.649Z,21.3
2018-06-24T13:44:23.218Z,21.3
2018-06-24T13:45:24.168Z,6.9
2018-06-24T13:46:22.778Z,6.9
2018-06-24T13:47:23.784Z,6.9
2018-06-24T13:48:22.756Z,8.8
2018-06-24T13:49:23.560Z,8.8
2018-06-24T13:50:22.735Z,8.8
2018-06-24T13:51:22.611Z,8.8
2018-06-24T13:52:23.957Z,8.8
2018-06-24T13:53:23.057Z,7.5
2018-06-24T13:54:23.562Z,7.5
2018-06-24T13:55:22.939Z,3.8
2018-06-24T13:56:22.681Z,3.8
2018-06-24T13:57:24.006Z,3.8
2018-06-24T13:58:23.156Z,10.0
2018-06-24T13:59:23.444Z,10.0
2018-06-24T14:00:23.071Z,10.0
2018-06-24T14:01:23.023Z,10.0
2018-06-24T14:03:22.767Z,4.4
2018-06-24T14:04:22.745Z,4.4
2018-06-24T14:05:23.768Z,4.4
2018-06-24T14:06:23.203Z,2.5
2018-06-24T14:07:22.724Z,2.5
2018-06-24T14:08:23.137Z,7.7
2018-06-24T14:09:22.600Z,7.7
2018-06-24T14:10:22.668Z,7.7
2018-06-24T14:11:23.265Z,4.4
2018-06-24T14:13:16.326Z,4.4
2018-06-24T14:13:24.444Z,4.4
2018-06-24T14:14:24.751Z,8.8
2018-06-24T14:15:24.918Z,8.8
2018-06-24T14:16:24.204Z,11.1
2018-06-24T14:17:24.980Z,11.1
2018-06-24T14:18:25.911Z,8.8
2018-06-24T14:19:26.110Z,8.8
2018-06-24T14:21:24.471Z,6.1
2018-06-24T14:22:24.444Z,6.1
2018-06-24T14:24:36.794Z,5.2